YTMS weather

Tambar Springs Airport
New South Wales, Australia

Public forecast

Using degrees Celsius for public forecast. Weather courtesy of forecast.io.

Closest aviation weather report (METAR) to Tambar Springs Airport

Closest report is Coonabarabran Airport, 29.8 nm (55.1 km) W. Retrieved 2020/07/16 13:00 UTC (12 minutes ago):

YCBB 161300Z AUTO 21009KT 9999 // NCD 05/03 Q1019

Closest aviation forecast (TAF) to Tambar Springs Airport

Closest forecast is Tamworth Airport, 53.2 nm (98.5 km) ENE. Retrieved 2020/07/16 12:36 UTC (36 minutes ago):

TAF TAF YSTW 161121Z 1612/1706 21005KT 9999 SCT040 BECMG 1618/1620 19005KT 9999 SCT015 BKN035 FM170000 19008KT 9999 SCT035